createdAt,value
2022-10-18T00:00:04.632Z,7.43
2022-10-18T00:02:31.009Z,7.47
2022-10-18T00:04:57.306Z,7.22
2022-10-18T00:07:23.605Z,6.90
2022-10-18T00:09:49.905Z,8.20
2022-10-18T00:12:16.249Z,7.28
2022-10-18T00:14:42.609Z,8.02
2022-10-18T00:17:08.885Z,7.25
2022-10-18T00:19:35.152Z,7.90
2022-10-18T00:22:01.418Z,7.32
2022-10-18T00:24:27.759Z,7.82
2022-10-18T00:26:54.049Z,7.80
2022-10-18T00:29:20.327Z,7.70
2022-10-18T00:31:46.598Z,7.82
2022-10-18T00:34:14.276Z,7.65
2022-10-18T00:36:41.154Z,7.85
2022-10-18T00:39:08.362Z,8.40
2022-10-18T00:41:36.262Z,7.82
2022-10-18T00:44:02.561Z,8.48
2022-10-18T00:46:33.151Z,7.90
2022-10-18T00:49:01.298Z,7.65
2022-10-18T00:51:30.796Z,8.00
2022-10-18T00:53:57.168Z,8.27
2022-10-18T00:56:23.556Z,8.43
2022-10-18T00:58:50.865Z,8.20
2022-10-18T01:01:17.294Z,8.27
2022-10-18T01:03:43.654Z,8.65
2022-10-18T01:06:09.968Z,8.93
2022-10-18T01:08:44.971Z,8.00
2022-10-18T01:11:43.991Z,8.20
2022-10-18T01:14:33.321Z,8.40
2022-10-18T01:16:59.609Z,9.40
2022-10-18T01:19:25.861Z,9.02
2022-10-18T01:22:02.041Z,8.50
2022-10-18T01:24:54.849Z,8.02
2022-10-18T01:27:30.553Z,8.98
2022-10-18T01:30:16.108Z,8.02
2022-10-18T01:32:50.357Z,9.20
2022-10-18T01:35:19.367Z,8.93
2022-10-18T01:37:47.220Z,9.23
2022-10-18T01:40:15.257Z,8.90
2022-10-18T01:42:43.365Z,8.93
2022-10-18T01:45:10.262Z,9.80
2022-10-18T01:47:36.757Z,9.85
2022-10-18T01:50:05.512Z,9.32
2022-10-18T01:52:31.974Z,9.57
2022-10-18T01:54:59.560Z,8.52
2022-10-18T01:57:25.805Z,8.65
2022-10-18T01:59:52.464Z,8.27
2022-10-18T02:02:51.219Z,9.07
2022-10-18T02:05:20.488Z,8.52
2022-10-18T02:08:12.024Z,9.77
2022-10-18T02:10:47.973Z,10.57
2022-10-18T02:13:20.515Z,13.32
2022-10-18T02:15:48.353Z,14.45
2022-10-18T02:18:18.269Z,11.52
2022-10-18T02:20:45.500Z,10.35
2022-10-18T02:23:13.473Z,11.00
2022-10-18T02:25:39.799Z,11.18
2022-10-18T02:28:06.495Z,10.73
2022-10-18T02:30:35.757Z,10.80
2022-10-18T02:33:08.988Z,10.25
2022-10-18T02:35:37.699Z,10.67
2022-10-18T02:38:05.268Z,11.20
2022-10-18T02:40:31.614Z,10.57
2022-10-18T02:42:58.604Z,11.52
2022-10-18T02:45:25.395Z,11.10
2022-10-18T02:47:51.797Z,10.35
2022-10-18T02:50:18.268Z,10.60
2022-10-18T02:52:44.670Z,12.25
2022-10-18T02:55:10.970Z,11.93
2022-10-18T02:57:37.285Z,11.60
2022-10-18T03:00:04.317Z,12.00
2022-10-18T03:02:30.717Z,10.63
2022-10-18T03:04:56.960Z,7.50
2022-10-18T03:07:23.480Z,4.70
2022-10-18T03:09:49.744Z,4.65
2022-10-18T03:12:16.243Z,2.90
2022-10-18T03:14:42.532Z,2.00
2022-10-18T03:17:08.815Z,1.20
2022-10-18T03:19:35.100Z,1.27
2022-10-18T03:22:01.382Z,1.20
2022-10-18T03:24:27.652Z,1.20
2022-10-18T03:26:53.908Z,1.40
2022-10-18T03:29:20.220Z,1.00
2022-10-18T03:31:46.553Z,1.45
2022-10-18T03:34:12.953Z,1.40
2022-10-18T03:36:41.156Z,1.38
2022-10-18T03:39:07.469Z,1.52
2022-10-18T03:41:33.781Z,1.45
2022-10-18T03:44:00.045Z,1.25
2022-10-18T03:46:26.348Z,0.80
2022-10-18T03:48:52.645Z,0.90
2022-10-18T03:51:18.931Z,0.80
2022-10-18T03:53:45.224Z,0.70
2022-10-18T03:56:11.509Z,0.70
2022-10-18T03:58:37.851Z,0.63
2022-10-18T04:01:04.217Z,0.57
2022-10-18T04:03:30.493Z,0.80
2022-10-18T04:05:57.066Z,0.73
2022-10-18T04:08:23.328Z,0.60
2022-10-18T04:10:49.612Z,0.50
2022-10-18T04:13:15.891Z,0.85
2022-10-18T04:15:42.943Z,0.90
2022-10-18T04:18:09.288Z,1.10
2022-10-18T04:20:35.587Z,1.08
2022-10-18T04:23:01.900Z,1.08
2022-10-18T04:25:29.215Z,1.10
2022-10-18T04:27:55.629Z,0.93
2022-10-18T04:30:21.886Z,1.23
2022-10-18T04:32:48.159Z,1.10
2022-10-18T04:35:14.444Z,1.23
2022-10-18T04:37:40.793Z,1.05
2022-10-18T04:40:07.470Z,1.15
2022-10-18T04:42:33.754Z,1.20
2022-10-18T04:45:00.049Z,1.20
2022-10-18T04:47:26.315Z,1.10
2022-10-18T04:49:52.601Z,1.00
2022-10-18T04:52:19.104Z,0.73
2022-10-18T04:54:45.373Z,1.10
2022-10-18T04:57:11.654Z,1.10
2022-10-18T04:59:37.911Z,1.23
2022-10-18T05:04:35.771Z,1.00
2022-10-18T05:07:02.847Z,0.95
2022-10-18T05:09:29.185Z,1.35
2022-10-18T05:11:55.467Z,1.73
2022-10-18T05:14:21.772Z,1.33
2022-10-18T05:16:48.049Z,1.35
2022-10-18T05:19:14.365Z,1.70
2022-10-18T05:21:40.787Z,1.88
2022-10-18T05:24:07.136Z,2.45
2022-10-18T05:26:33.404Z,2.10
2022-10-18T05:28:59.724Z,1.88
2022-10-18T05:31:26.141Z,2.05
2022-10-18T05:33:52.417Z,2.20
2022-10-18T05:36:18.681Z,1.92
2022-10-18T05:38:45.445Z,2.65
2022-10-18T05:41:12.297Z,2.75
2022-10-18T05:43:39.554Z,2.58
2022-10-18T05:46:11.805Z,2.08
2022-10-18T05:48:41.357Z,2.70
2022-10-18T05:51:07.640Z,3.83
2022-10-18T05:53:38.021Z,4.03
2022-10-18T05:56:05.233Z,4.20
2022-10-18T05:58:31.570Z,4.30
2022-10-18T06:00:58.989Z,3.78
2022-10-18T06:03:25.287Z,3.40
2022-10-18T06:05:51.568Z,3.30
2022-10-18T06:08:17.837Z,3.33
2022-10-18T06:10:44.180Z,2.33
2022-10-18T06:13:10.456Z,2.75
2022-10-18T06:15:36.726Z,2.50
2022-10-18T06:18:03.111Z,1.65
2022-10-18T06:20:29.385Z,1.92
2022-10-18T06:22:55.702Z,1.30
2022-10-18T06:25:21.987Z,1.33
2022-10-18T06:27:48.285Z,2.40
2022-10-18T06:30:15.531Z,2.00
2022-10-18T06:32:41.789Z,1.95
2022-10-18T06:35:08.319Z,2.50
2022-10-18T06:37:35.564Z,4.03
2022-10-18T06:40:02.211Z,6.95
2022-10-18T06:42:28.703Z,7.40
2022-10-18T06:44:54.972Z,6.70
2022-10-18T06:47:21.262Z,6.35
2022-10-18T06:49:47.545Z,6.30
2022-10-18T06:52:13.844Z,5.82
2022-10-18T06:54:40.108Z,5.25
2022-10-18T06:57:06.419Z,4.90
2022-10-18T06:59:32.689Z,4.60
2022-10-18T07:01:59.039Z,4.53
2022-10-18T07:04:27.898Z,4.03
2022-10-18T07:06:54.220Z,3.78
2022-10-18T07:09:20.519Z,2.28
2022-10-18T07:11:46.790Z,2.00
2022-10-18T07:14:16.313Z,1.80
2022-10-18T07:16:42.840Z,2.40
2022-10-18T07:19:09.163Z,3.92
2022-10-18T07:21:35.432Z,2.90
2022-10-18T07:24:01.691Z,3.47
2022-10-18T07:26:31.978Z,5.60
2022-10-18T07:29:04.565Z,5.97
2022-10-18T07:31:31.054Z,5.15
2022-10-18T07:33:57.470Z,4.28
2022-10-18T07:36:24.519Z,3.20
2022-10-18T07:38:54.083Z,2.90
2022-10-18T07:41:20.626Z,2.45
2022-10-18T07:43:47.929Z,1.83
2022-10-18T07:46:14.701Z,1.80
2022-10-18T07:48:41.109Z,1.30
2022-10-18T07:51:07.522Z,1.08
2022-10-18T07:53:34.532Z,1.00
2022-10-18T07:56:04.554Z,0.90
2022-10-18T07:58:34.301Z,1.05
2022-10-18T08:01:03.841Z,1.00
2022-10-18T08:03:30.125Z,0.80
2022-10-18T08:05:56.594Z,0.98
2022-10-18T08:08:23.754Z,1.20
2022-10-18T08:10:50.420Z,0.77
2022-10-18T08:13:17.045Z,1.25
2022-10-18T08:15:43.692Z,0.90
2022-10-18T08:18:10.286Z,0.90
2022-10-18T08:20:36.994Z,0.90
2022-10-18T08:23:04.161Z,0.73
2022-10-18T08:25:30.815Z,0.82
2022-10-18T08:27:57.404Z,0.65
2022-10-18T08:30:23.764Z,0.80
2022-10-18T08:32:50.073Z,1.00
2022-10-18T08:35:16.473Z,0.73
2022-10-18T08:37:43.508Z,0.90
2022-10-18T08:40:10.793Z,0.90
2022-10-18T08:42:46.129Z,0.85
2022-10-18T08:45:29.751Z,0.80
2022-10-18T08:47:59.091Z,0.93
2022-10-18T08:50:35.295Z,0.77
2022-10-18T08:53:05.692Z,0.82
2022-10-18T08:55:38.883Z,0.63
2022-10-18T08:58:17.056Z,0.80
2022-10-18T09:00:47.616Z,0.60
2022-10-18T09:03:22.031Z,0.68
2022-10-18T09:06:02.791Z,0.75
2022-10-18T09:08:29.073Z,0.60
2022-10-18T09:11:01.430Z,0.90
2022-10-18T09:13:46.616Z,0.80
2022-10-18T09:16:19.234Z,0.70
2022-10-18T09:18:45.556Z,0.68
2022-10-18T09:21:11.813Z,0.65
2022-10-18T09:23:46.979Z,0.93
2022-10-18T09:26:16.354Z,0.60
2022-10-18T09:28:55.068Z,0.70
2022-10-18T09:31:26.098Z,0.98
2022-10-18T09:33:52.337Z,1.00
2022-10-18T09:36:33.543Z,0.90
2022-10-18T09:39:02.226Z,0.90
2022-10-18T09:41:30.161Z,0.80
2022-10-18T09:44:02.350Z,0.70
2022-10-18T09:46:32.243Z,0.88
2022-10-18T09:49:04.204Z,0.70
2022-10-18T09:51:35.256Z,0.90
2022-10-18T09:54:10.649Z,0.73
2022-10-18T09:56:42.044Z,1.02
2022-10-18T09:59:22.640Z,0.60
2022-10-18T10:01:48.903Z,0.65
2022-10-18T10:04:15.342Z,0.70
2022-10-18T10:06:48.690Z,0.93
2022-10-18T10:09:15.775Z,0.60
2022-10-18T10:11:46.489Z,1.10
2022-10-18T10:14:17.690Z,0.60
2022-10-18T10:16:51.798Z,0.80
2022-10-18T10:21:44.550Z,0.90
2022-10-18T10:24:19.288Z,0.82
2022-10-18T10:26:47.001Z,0.77
2022-10-18T10:29:44.053Z,0.88
2022-10-18T10:32:12.665Z,1.08
2022-10-18T10:34:42.344Z,1.10
2022-10-18T10:37:23.211Z,1.33
2022-10-18T10:40:17.749Z,1.20
2022-10-18T10:43:04.323Z,1.10
2022-10-18T10:45:55.098Z,0.90
2022-10-18T10:48:21.953Z,0.90
2022-10-18T10:50:56.307Z,1.05
2022-10-18T10:53:30.749Z,0.90
2022-10-18T10:55:58.135Z,0.80
2022-10-18T10:58:26.155Z,0.88
2022-10-18T11:00:52.461Z,1.00
2022-10-18T11:03:29.396Z,0.80
2022-10-18T11:05:58.003Z,0.80
2022-10-18T11:08:26.305Z,0.85
2022-10-18T11:10:58.689Z,0.90
2022-10-18T11:13:31.957Z,1.38
2022-10-18T11:16:06.861Z,0.73
2022-10-18T11:18:34.114Z,0.80
2022-10-18T11:21:05.509Z,0.88
2022-10-18T11:23:32.366Z,0.90
2022-10-18T11:26:11.038Z,0.80
2022-10-18T11:28:56.276Z,0.90
2022-10-18T11:31:25.653Z,1.70
2022-10-18T11:34:08.188Z,2.40
2022-10-18T11:39:07.246Z,1.38
2022-10-18T11:41:46.660Z,0.90
2022-10-18T11:44:17.854Z,0.90
2022-10-18T11:46:44.129Z,1.00
2022-10-18T11:49:13.090Z,0.80
2022-10-18T11:52:03.642Z,0.70
2022-10-18T11:54:51.963Z,1.00
2022-10-18T11:57:25.901Z,0.77
2022-10-18T12:02:37.449Z,0.70
2022-10-18T12:05:23.139Z,1.10
2022-10-18T12:07:57.734Z,2.22
2022-10-18T12:10:37.799Z,2.08
2022-10-18T12:13:16.394Z,0.90
2022-10-18T12:15:43.552Z,0.80
2022-10-18T12:18:16.258Z,3.03
2022-10-18T12:20:44.994Z,0.90
2022-10-18T12:23:16.592Z,2.10
2022-10-18T12:25:45.415Z,2.00
2022-10-18T12:28:30.570Z,1.20
2022-10-18T12:31:15.763Z,0.90
2022-10-18T12:33:45.068Z,0.80
2022-10-18T12:36:20.812Z,0.88
2022-10-18T12:38:49.877Z,0.80
2022-10-18T12:41:19.617Z,2.38
2022-10-18T12:43:51.400Z,2.08
2022-10-18T12:46:17.995Z,1.60
2022-10-18T12:48:48.235Z,1.10
2022-10-18T12:51:17.560Z,1.33
2022-10-18T12:53:48.687Z,1.20
2022-10-18T12:56:34.438Z,1.50
2022-10-18T12:59:16.565Z,1.27
2022-10-18T13:01:52.924Z,1.30
2022-10-18T13:04:29.067Z,1.88
2022-10-18T13:07:04.843Z,1.10
2022-10-18T13:09:43.240Z,3.70
2022-10-18T13:12:09.569Z,1.10
2022-10-18T13:15:05.795Z,1.00
2022-10-18T13:17:43.240Z,1.02
2022-10-18T13:20:27.281Z,1.10
2022-10-18T13:26:04.217Z,0.98
2022-10-18T13:28:33.639Z,1.50
2022-10-18T13:31:09.264Z,1.33
2022-10-18T13:33:38.558Z,1.13
2022-10-18T13:36:22.488Z,1.00
2022-10-18T13:38:57.120Z,1.00
2022-10-18T13:44:02.443Z,1.20
2022-10-18T13:46:34.829Z,1.23
2022-10-18T13:49:20.099Z,1.02
2022-10-18T13:51:46.368Z,1.20
2022-10-18T13:54:12.694Z,1.40
2022-10-18T13:56:46.079Z,1.30
2022-10-18T13:59:21.735Z,1.52
2022-10-18T14:02:00.398Z,1.70
2022-10-18T14:04:32.830Z,1.80
2022-10-18T14:07:02.481Z,2.40
2022-10-18T14:09:43.513Z,2.08
2022-10-18T14:12:14.019Z,3.97
2022-10-18T14:14:43.270Z,1.67
2022-10-18T14:17:48.281Z,0.93
2022-10-18T14:22:59.801Z,1.40
2022-10-18T14:25:28.987Z,2.70
2022-10-18T14:28:13.496Z,2.05
2022-10-18T14:30:55.412Z,2.30
2022-10-18T14:33:26.397Z,2.20
2022-10-18T14:35:59.692Z,2.03
2022-10-18T14:38:25.983Z,1.40
2022-10-18T14:41:03.987Z,1.30
2022-10-18T14:43:30.275Z,1.60
2022-10-18T14:46:07.775Z,1.92
2022-10-18T14:48:34.100Z,1.80
2022-10-18T14:51:09.386Z,2.60
2022-10-18T14:53:38.297Z,1.50
2022-10-18T14:56:05.733Z,1.45
2022-10-18T14:58:32.410Z,1.55
2022-10-18T15:00:59.138Z,8.73
2022-10-18T15:03:26.122Z,6.30
2022-10-18T15:05:54.066Z,3.30
2022-10-18T15:08:20.912Z,1.90
2022-10-18T15:10:47.835Z,1.48
2022-10-18T15:13:15.396Z,1.55
2022-10-18T15:15:43.400Z,1.40
2022-10-18T15:18:23.381Z,1.33
2022-10-18T15:21:08.480Z,1.48
2022-10-18T15:23:34.906Z,1.60
2022-10-18T15:26:05.435Z,1.45
2022-10-18T15:28:49.638Z,1.65
2022-10-18T15:31:27.569Z,1.80
2022-10-18T15:33:55.173Z,1.80
2022-10-18T15:36:28.034Z,2.42
2022-10-18T15:39:03.479Z,2.22
2022-10-18T15:41:40.837Z,1.98
2022-10-18T15:44:21.419Z,2.50
2022-10-18T15:46:48.120Z,2.30
2022-10-18T15:49:23.710Z,2.55
2022-10-18T15:51:51.211Z,2.15
2022-10-18T15:54:18.343Z,2.40
2022-10-18T15:56:45.221Z,2.70
2022-10-18T15:59:38.068Z,2.42
2022-10-18T16:02:04.461Z,2.30
2022-10-18T16:04:33.703Z,2.60
2022-10-18T16:07:00.145Z,2.85
2022-10-18T16:09:27.282Z,2.70
2022-10-18T16:11:57.074Z,2.60
2022-10-18T16:14:24.115Z,2.45
2022-10-18T16:16:55.582Z,2.83
2022-10-18T16:19:22.658Z,2.28
2022-10-18T16:21:49.445Z,3.30
2022-10-18T16:24:16.171Z,3.15
2022-10-18T16:26:42.773Z,2.83
2022-10-18T16:29:13.501Z,3.10
2022-10-18T16:31:39.918Z,3.03
2022-10-18T16:34:06.334Z,2.90
2022-10-18T16:36:33.342Z,3.55
2022-10-18T16:39:02.209Z,2.95
2022-10-18T16:41:28.574Z,3.55
2022-10-18T16:43:54.870Z,3.25
2022-10-18T16:46:27.332Z,3.08
2022-10-18T16:48:54.333Z,3.15
2022-10-18T16:51:20.649Z,2.95
2022-10-18T16:53:46.951Z,3.33
2022-10-18T16:56:17.581Z,3.72
2022-10-18T16:58:44.676Z,3.50
2022-10-18T17:01:12.407Z,4.10
2022-10-18T17:03:38.738Z,4.07
2022-10-18T17:06:05.086Z,4.38
2022-10-18T17:08:31.410Z,4.07
2022-10-18T17:10:58.705Z,3.90
2022-10-18T17:13:25.712Z,3.72
2022-10-18T17:15:53.313Z,3.97
2022-10-18T17:18:21.791Z,4.53
2022-10-18T17:20:48.438Z,5.00
2022-10-18T17:23:15.217Z,5.05
2022-10-18T17:25:57.682Z,4.68
2022-10-18T17:28:34.031Z,4.85
2022-10-18T17:31:01.400Z,5.30
2022-10-18T17:33:27.716Z,6.47
2022-10-18T17:35:55.087Z,6.60
2022-10-18T17:38:21.431Z,6.30
2022-10-18T17:40:47.882Z,5.75
2022-10-18T17:43:14.338Z,5.50
2022-10-18T17:45:53.433Z,5.75
2022-10-18T17:48:19.689Z,5.93
2022-10-18T17:50:45.974Z,5.75
2022-10-18T17:53:12.987Z,6.53
2022-10-18T17:55:39.785Z,8.18
2022-10-18T17:58:07.196Z,7.88
2022-10-18T18:00:33.620Z,7.88
2022-10-18T18:03:00.271Z,8.73
2022-10-18T18:05:30.117Z,7.63
2022-10-18T18:08:01.290Z,6.40
2022-10-18T18:10:31.701Z,5.97
2022-10-18T18:12:58.116Z,6.00
2022-10-18T18:15:24.418Z,5.82
2022-10-18T18:17:57.132Z,5.80
2022-10-18T18:20:24.320Z,7.00
2022-10-18T18:22:51.031Z,6.70
2022-10-18T18:25:17.434Z,7.68
2022-10-18T18:27:43.724Z,7.15
2022-10-18T18:30:10.197Z,8.30
2022-10-18T18:32:39.296Z,8.30
2022-10-18T18:35:05.792Z,7.68
2022-10-18T18:37:32.157Z,7.30
2022-10-18T18:39:58.428Z,8.05
2022-10-18T18:42:24.785Z,8.45
2022-10-18T18:44:51.095Z,8.38
2022-10-18T18:47:21.119Z,8.40
2022-10-18T18:49:47.389Z,9.15
2022-10-18T18:52:13.657Z,10.23
2022-10-18T18:54:39.991Z,10.45
2022-10-18T18:57:06.413Z,11.95
2022-10-18T18:59:32.744Z,11.43
2022-10-18T19:01:59.164Z,10.35
2022-10-18T19:04:25.451Z,10.02
2022-10-18T19:06:51.749Z,10.07
2022-10-18T19:09:26.272Z,10.65
2022-10-18T19:11:53.610Z,10.93
2022-10-18T19:16:53.206Z,10.55
2022-10-18T19:19:20.643Z,10.98
2022-10-18T19:21:48.984Z,11.57
2022-10-18T19:24:15.656Z,12.32
2022-10-18T19:26:44.869Z,13.52
2022-10-18T19:29:11.252Z,13.43
2022-10-18T19:31:38.409Z,13.27
2022-10-18T19:34:05.486Z,13.65
2022-10-18T19:36:32.008Z,13.25
2022-10-18T19:38:58.352Z,14.57
2022-10-18T19:43:52.221Z,16.63
2022-10-18T19:46:18.677Z,16.42
2022-10-18T19:48:44.970Z,17.35
2022-10-18T19:51:17.302Z,19.73
2022-10-18T19:53:47.190Z,20.17
2022-10-18T19:56:16.802Z,20.73
2022-10-18T19:58:43.101Z,19.20
2022-10-18T20:01:09.447Z,20.38
2022-10-18T20:03:35.733Z,18.70
2022-10-18T20:06:02.609Z,20.05
2022-10-18T20:08:30.277Z,20.17
2022-10-18T20:10:59.882Z,19.52
2022-10-18T20:13:26.234Z,18.52
2022-10-18T20:15:52.632Z,16.63
2022-10-18T20:18:19.713Z,17.10
2022-10-18T20:20:48.191Z,16.40
2022-10-18T20:23:15.369Z,15.50
2022-10-18T20:25:41.739Z,16.00
2022-10-18T20:28:08.145Z,15.52
2022-10-18T20:30:34.473Z,16.55
2022-10-18T20:33:00.782Z,16.95
2022-10-18T20:35:27.145Z,17.67
2022-10-18T20:37:53.422Z,16.17
2022-10-18T20:40:19.709Z,15.35
2022-10-18T20:42:46.016Z,16.88
2022-10-18T20:45:12.381Z,16.85
2022-10-18T20:47:38.769Z,18.20
2022-10-18T20:50:05.257Z,16.70
2022-10-18T20:52:31.517Z,17.92
2022-10-18T20:54:57.797Z,18.17
2022-10-18T20:57:24.074Z,17.92
2022-10-18T20:59:50.441Z,19.13
2022-10-18T21:02:16.706Z,17.13
2022-10-18T21:04:42.991Z,16.45
2022-10-18T21:07:09.250Z,18.35
2022-10-18T21:09:35.580Z,19.10
2022-10-18T21:12:01.911Z,18.23
2022-10-18T21:14:28.315Z,20.23
2022-10-18T21:16:54.860Z,20.27
2022-10-18T21:19:25.648Z,21.30
2022-10-18T21:21:53.683Z,21.00
2022-10-18T21:24:20.528Z,21.73
2022-10-18T21:26:47.771Z,23.42
2022-10-18T21:29:19.312Z,24.10
2022-10-18T21:34:15.679Z,24.98
2022-10-18T21:36:43.078Z,26.77
2022-10-18T21:39:12.443Z,24.95
2022-10-18T21:41:39.577Z,24.60
2022-10-18T21:44:09.849Z,23.60
2022-10-18T21:46:37.875Z,24.48
2022-10-18T21:49:05.013Z,24.88
2022-10-18T21:51:31.323Z,26.02
2022-10-18T21:53:58.214Z,26.70
2022-10-18T21:56:26.906Z,26.20
2022-10-18T21:58:53.240Z,23.33
2022-10-18T22:01:20.861Z,23.38
2022-10-18T22:03:48.261Z,23.75
2022-10-18T22:06:15.203Z,23.65
2022-10-18T22:08:42.499Z,22.80
2022-10-18T22:11:08.954Z,23.23
2022-10-18T22:13:35.250Z,22.25
2022-10-18T22:16:02.629Z,21.65
2022-10-18T22:18:29.449Z,21.80
2022-10-18T22:20:56.392Z,22.50
2022-10-18T22:23:22.845Z,22.30
2022-10-18T22:25:49.165Z,23.02
2022-10-18T22:28:15.512Z,24.45
2022-10-18T22:30:41.866Z,25.30
2022-10-18T22:33:08.171Z,25.95
2022-10-18T22:35:34.427Z,24.38
2022-10-18T22:38:00.751Z,23.33
2022-10-18T22:40:27.035Z,28.55
2022-10-18T22:42:53.298Z,27.40
2022-10-18T22:45:19.665Z,26.38
2022-10-18T22:47:45.934Z,24.88
2022-10-18T22:50:12.276Z,24.23
2022-10-18T22:52:38.570Z,23.63
2022-10-18T22:55:05.076Z,25.50
2022-10-18T22:57:31.385Z,26.30
2022-10-18T22:59:57.663Z,24.55
2022-10-18T23:02:23.941Z,25.88
2022-10-18T23:04:50.213Z,27.38
2022-10-18T23:07:16.497Z,24.70
2022-10-18T23:09:42.757Z,24.23
2022-10-18T23:12:09.045Z,26.48
2022-10-18T23:14:35.310Z,27.33
2022-10-18T23:17:01.620Z,26.73
2022-10-18T23:19:27.882Z,27.52
2022-10-18T23:21:54.152Z,27.60
2022-10-18T23:24:20.421Z,29.08
2022-10-18T23:26:46.707Z,27.30
2022-10-18T23:29:13.696Z,28.65
2022-10-18T23:31:40.027Z,27.83
2022-10-18T23:34:06.354Z,28.50
2022-10-18T23:36:33.226Z,27.63
2022-10-18T23:38:59.693Z,27.65
2022-10-18T23:41:26.337Z,31.98
2022-10-18T23:43:52.917Z,28.90
2022-10-18T23:46:19.286Z,27.13
2022-10-18T23:48:46.022Z,31.83
2022-10-18T23:51:12.694Z,26.45
2022-10-18T23:53:38.988Z,27.25
2022-10-18T23:56:06.487Z,28.08
2022-10-18T23:58:33.672Z,24.50
